Terminal Aerodrome Forecast
Issued by NWS

Home | Current Version | Previous Version | Text Only | Print | Product List | Glossary On
Versions: 1 2 3 4 5 6 7 8 9 10 11 12 13 14 15
342
FTUS43 KTOP 210520
TAFMHK
TAF
KMHK 210520Z 2106/2206 17012KT P6SM SKC
     FM210800 19007KT P6SM FEW250 WS015/22045KT
     FM211300 20010KT P6SM SKC
     FM211800 20013G23KT P6SM FEW070=

USA.gov is the U.S. government's official web portal to all federal, state and local government web resources and services.